Time;durP1;ratioP1;P1;durP2;ratioP2;P2;SDS_P1;SDS_P2;PMS_P1;PMS_P2;Temp;Humidity;BMP_temperature;BMP_pressure;BME280_temperature;BME280_humidity;BME280_pressure;Samples;Min_cycle;Max_cycle;Signal;HPM_P1;HPM_P2
2023/07/19 00:00:49;;;;;;;1.95;1.48;;;;;;;24.15;46.62;101470.56;4971953;28;20044;-69
2023/07/19 00:03:14;;;;;;;1.55;1.15;;;;;;;24.14;46.71;101467.09;4966623;28;20692;-70
2023/07/19 00:05:40;;;;;;;2.60;1.73;;;;;;;24.14;46.46;101460.94;4971452;28;20088;-70
2023/07/19 00:08:05;;;;;;;1.50;1.40;;;;;;;24.14;46.47;101466.28;4968768;28;20050;-70
2023/07/19 00:10:31;;;;;;;1.80;1.38;;;;;;;24.15;46.50;101451.94;4972406;28;20062;-70
2023/07/19 00:12:57;;;;;;;1.50;1.25;;;;;;;24.14;46.59;101459.09;4971713;28;20520;-69
2023/07/19 00:15:23;;;;;;;1.55;1.45;;;;;;;24.13;46.72;101454.81;4989669;28;20039;-69
2023/07/19 00:17:49;;;;;;;1.80;1.60;;;;;;;24.11;46.52;101448.84;4971765;28;20046;-69
2023/07/19 00:20:15;;;;;;;1.83;1.40;;;;;;;24.11;46.63;101451.53;4974426;28;20477;-70
2023/07/19 00:22:40;;;;;;;1.63;1.40;;;;;;;24.03;46.66;101433.84;4988345;28;20046;-69
2023/07/19 00:25:06;;;;;;;1.75;1.52;;;;;;;24.03;46.66;101435.69;4969324;28;20070;-68
2023/07/19 00:27:32;;;;;;;1.30;1.20;;;;;;;24.09;46.55;101445.56;4970401;28;20049;-68
2023/07/19 00:29:58;;;;;;;1.60;1.40;;;;;;;24.09;46.71;101438.41;4985923;28;20599;-68
2023/07/19 00:32:24;;;;;;;1.50;1.40;;;;;;;24.09;46.63;101425.09;4972018;28;20039;-68
2023/07/19 00:34:49;;;;;;;1.70;1.23;;;;;;;24.09;46.56;101416.31;4968570;28;20508;-68
2023/07/19 00:37:15;;;;;;;1.50;1.40;;;;;;;24.06;46.73;101428.16;4971290;28;20035;-68
2023/07/19 00:39:41;;;;;;;1.70;1.20;;;;;;;24.06;46.67;101417.53;4965464;28;20580;-68
2023/07/19 00:42:07;;;;;;;1.42;1.33;;;;;;;24.05;46.46;101421.16;4972395;28;20054;-69
2023/07/19 00:44:33;;;;;;;1.40;1.30;;;;;;;24.06;46.67;101408.72;4971740;28;20049;-70
2023/07/19 00:47:02;;;;;;;2.45;1.50;;;;;;;24.03;46.81;101423.19;4973016;28;20039;-69
2023/07/19 00:49:32;;;;;;;1.60;1.10;;;;;;;24.04;46.66;101411.53;4973128;28;20031;-69
2023/07/19 00:52:01;;;;;;;;;;;;;;;24.03;46.85;101417.88;4970615;28;20746;-69
2023/07/19 00:54:28;;;;;;;1.45;1.35;;;;;;;24.02;46.67;101415.41;4984740;28;19961;-69
2023/07/19 00:56:54;;;;;;;2.17;1.70;;;;;;;24.01;46.79;101414.59;4975352;28;20046;-69
2023/07/19 00:59:22;;;;;;;1.50;1.40;;;;;;;24.02;46.99;101412.75;4968949;28;20047;-68
2023/07/19 01:01:49;;;;;;;2.20;1.83;;;;;;;24.01;46.87;101408.44;4969059;28;20038;-69
2023/07/19 01:04:15;;;;;;;1.70;1.10;;;;;;;24.01;46.79;101401.28;4972230;28;20122;-69
2023/07/19 01:06:42;;;;;;;1.42;1.33;;;;;;;24.02;46.84;101402.94;4971686;28;20496;-69
2023/07/19 01:09:09;;;;;;;1.27;1.15;;;;;;;24.00;46.86;101404.97;4969650;28;20397;-69
2023/07/19 01:11:35;;;;;;;1.40;1.30;;;;;;;23.95;46.80;101394.09;4974034;28;20034;-68
2023/07/19 01:14:01;;;;;;;1.92;1.38;;;;;;;23.99;46.92;101405.16;4967126;28;20097;-69
2023/07/19 01:16:26;;;;;;;2.05;1.55;;;;;;;24.02;46.89;101399.44;4955414;28;20047;-70
2023/07/19 01:18:52;;;;;;;1.50;1.40;;;;;;;24.00;46.96;101407.63;4984296;28;20101;-70
2023/07/19 01:21:19;;;;;;;1.75;1.65;;;;;;;23.99;46.85;101403.31;4982408;28;20034;-68
2023/07/19 01:23:44;;;;;;;1.42;1.33;;;;;;;24.00;46.94;101407.63;4973202;28;21212;-68
2023/07/19 01:26:10;;;;;;;1.58;1.30;;;;;;;23.99;46.98;101405.16;4970183;28;20051;-68
2023/07/19 01:28:35;;;;;;;2.60;1.40;;;;;;;23.98;47.01;101403.53;4988780;28;20108;-67
2023/07/19 01:31:04;;;;;;;1.63;1.50;;;;;;;23.95;47.12;101406.56;4970167;28;20038;-68
2023/07/19 01:33:29;;;;;;;1.40;1.30;;;;;;;23.95;46.98;101394.09;4973666;28;20074;-68
2023/07/19 01:35:55;;;;;;;1.30;1.20;;;;;;;23.95;47.08;101393.28;4968631;28;20079;-68
2023/07/19 01:38:20;;;;;;;1.70;1.60;;;;;;;23.96;46.95;101384.28;4984143;28;20038;-68
2023/07/19 01:40:46;;;;;;;1.55;1.30;;;;;;;23.95;46.92;101386.13;4968731;28;20070;-67
2023/07/19 01:43:11;;;;;;;1.52;1.42;;;;;;;23.97;46.95;101378.75;4965442;28;20054;-68
2023/07/19 01:45:37;;;;;;;1.40;1.30;;;;;;;23.97;46.94;101385.91;4971222;28;20038;-68
2023/07/19 01:48:02;;;;;;;1.42;1.33;;;;;;;23.97;46.96;101383.25;4973627;28;20042;-68
2023/07/19 01:50:29;;;;;;;1.50;1.35;;;;;;;23.93;47.00;101374.03;4970414;28;20070;-68
2023/07/19 01:52:55;;;;;;;1.63;1.23;;;;;;;23.93;47.12;101372.19;4969878;28;20126;-69
2023/07/19 01:55:20;;;;;;;2.25;1.38;;;;;;;23.93;47.15;101366.03;4972579;28;21631;-69
2023/07/19 01:57:46;;;;;;;1.58;1.27;;;;;;;23.93;47.07;101366.03;4970405;28;20134;-68
2023/07/19 02:00:12;;;;;;;1.98;1.40;;;;;;;23.93;47.06;101360.72;4971731;28;20051;-69
2023/07/19 02:02:45;;;;;;;1.42;1.33;;;;;;;23.90;47.13;101364.59;4975090;28;20030;-69
2023/07/19 02:05:10;;;;;;;1.60;1.50;;;;;;;23.92;47.09;101361.75;4971736;28;20800;-69
2023/07/19 02:07:36;;;;;;;1.45;1.35;;;;;;;23.94;47.07;101359.72;4973921;28;20034;-69
2023/07/19 02:10:04;;;;;;;1.25;1.17;;;;;;;23.94;47.06;101357.06;4977074;28;20046;-68
2023/07/19 02:12:29;;;;;;;1.58;1.40;;;;;;;23.94;47.00;101359.72;4969842;28;20038;-69
2023/07/19 02:14:56;;;;;;;1.60;1.50;;;;;;;23.87;47.16;101340.22;4987405;28;20560;-69
2023/07/19 02:17:21;;;;;;;1.40;1.30;;;;;;;23.87;47.29;101342.88;4976505;28;20049;-68
2023/07/19 02:19:47;;;;;;;1.50;1.38;;;;;;;23.88;47.21;101347.16;4974052;28;20046;-69
2023/07/19 02:22:15;;;;;;;2.15;1.90;;;;;;;23.86;47.17;101350.03;4972569;28;20042;-69
2023/07/19 02:24:41;;;;;;;1.80;1.38;;;;;;;23.87;47.33;101349.00;4968495;28;20053;-69
2023/07/19 02:27:06;;;;;;;1.95;1.45;;;;;;;23.89;47.16;101349.66;4973242;28;20366;-68
2023/07/19 02:29:32;;;;;;;1.33;1.20;;;;;;;23.88;47.14;101350.69;4972888;28;20042;-68
2023/07/19 02:31:58;;;;;;;1.77;1.40;;;;;;;23.88;47.25;101345.34;4989628;28;20575;-69
2023/07/19 02:34:23;;;;;;;1.92;1.50;;;;;;;23.88;47.25;101342.69;4971675;28;20046;-69
2023/07/19 02:36:49;;;;;;;2.00;1.50;;;;;;;23.86;47.25;101339.38;4974410;28;20038;-69
2023/07/19 02:39:20;;;;;;;3.20;1.48;;;;;;;23.85;47.22;101332.41;4972486;28;20045;-69
2023/07/19 02:41:45;;;;;;;1.48;1.38;;;;;;;23.84;47.24;101333.44;4971556;28;20102;-69
2023/07/19 02:44:11;;;;;;;1.77;1.67;;;;;;;23.85;47.19;101328.94;4974982;28;20085;-69
2023/07/19 02:46:38;;;;;;;1.85;1.70;;;;;;;23.87;47.34;101325.06;4971842;28;20031;-69
2023/07/19 02:49:03;;;;;;;1.50;1.40;;;;;;;23.87;47.32;101332.22;4976644;28;20043;-69
2023/07/19 02:51:29;;;;;;;1.65;1.48;;;;;;;23.86;47.10;101334.06;4968494;28;20150;-69
2023/07/19 02:53:54;;;;;;;1.73;1.60;;;;;;;23.85;47.21;101334.25;4974229;28;20035;-69
2023/07/19 02:56:20;;;;;;;1.70;1.60;;;;;;;23.83;47.21;101337.13;4973056;28;20049;-69
2023/07/19 02:58:46;;;;;;;1.70;1.60;;;;;;;23.84;47.37;101337.94;4971687;28;20042;-69
2023/07/19 03:01:14;;;;;;;1.55;1.45;;;;;;;23.77;47.27;101328.09;4983447;28;20047;-69
2023/07/19 03:03:41;;;;;;;1.75;1.40;;;;;;;23.80;47.44;101334.84;4973347;28;20039;-69
2023/07/19 03:06:09;;;;;;;1.95;1.30;;;;;;;23.83;47.32;101336.28;4973530;28;20473;-69
2023/07/19 03:08:36;;;;;;;1.10;1.10;;;;;;;23.80;47.28;101338.34;4971947;28;20074;-69
2023/07/19 03:11:02;;;;;;;1.48;1.33;;;;;;;23.77;47.53;101335.25;4972220;28;20126;-69
2023/07/19 03:13:27;;;;;;;1.52;1.42;;;;;;;23.84;47.32;101338.75;4977230;28;20088;-69
2023/07/19 03:15:53;;;;;;;1.67;1.58;;;;;;;23.81;47.27;101339.97;4973339;28;20109;-68
2023/07/19 03:18:18;;;;;;;2.25;1.45;;;;;;;23.73;47.50;101331.34;4973017;28;20043;-69
2023/07/19 03:20:44;;;;;;;1.88;1.42;;;;;;;23.80;47.23;101330.34;4971878;28;20117;-69
2023/07/19 03:23:11;;;;;;;2.17;1.55;;;;;;;23.78;47.36;101328.91;4970852;28;20045;-69
2023/07/19 03:25:36;;;;;;;2.38;1.50;;;;;;;23.79;47.43;101323.38;4971328;28;20408;-69
2023/07/19 03:28:02;;;;;;;1.63;1.30;;;;;;;23.79;47.46;101320.72;4972283;28;20374;-69
2023/07/19 03:30:27;;;;;;;1.13;1.05;;;;;;;23.74;47.32;101322.34;4972816;28;20061;-69
2023/07/19 03:32:53;;;;;;;1.95;1.48;;;;;;;23.78;47.29;101332.38;4970845;28;20045;-69
2023/07/19 03:35:20;;;;;;;2.97;1.40;;;;;;;23.78;47.47;101327.06;4968527;28;20049;-69
2023/07/19 03:37:45;;;;;;;1.45;1.20;;;;;;;23.73;47.45;101321.53;4970543;28;20532;-69
2023/07/19 03:40:12;;;;;;;2.75;1.50;;;;;;;23.70;47.48;101319.25;4973116;28;20582;-69
2023/07/19 03:42:38;;;;;;;2.13;1.67;;;;;;;23.74;47.53;101325.00;4971754;28;20070;-69
2023/07/19 03:45:05;;;;;;;1.67;1.42;;;;;;;23.76;47.26;101334.41;4973100;28;20049;-69
2023/07/19 03:47:31;;;;;;;1.35;1.25;;;;;;;23.75;47.45;101334.63;4975112;28;20543;-69
2023/07/19 03:49:58;;;;;;;1.40;1.30;;;;;;;23.76;47.38;101320.31;4973865;28;20488;-70
2023/07/19 03:52:26;;;;;;;1.70;1.60;;;;;;;23.76;47.47;101326.44;4972086;28;20043;-68
2023/07/19 03:54:53;;;;;;;1.63;1.48;;;;;;;23.76;47.37;101334.41;4966732;28;20042;-69
2023/07/19 03:57:19;;;;;;;2.33;1.58;;;;;;;23.74;47.54;101330.31;4971189;28;20153;-69
2023/07/19 03:59:46;;;;;;;1.67;1.58;;;;;;;23.74;47.54;101325.00;4970464;28;20131;-69
2023/07/19 04:02:11;;;;;;;1.67;1.50;;;;;;;23.73;47.66;101326.84;4986749;28;20039;-69
2023/07/19 04:04:37;;;;;;;1.70;1.58;;;;;;;23.73;47.50;101324.19;4969442;28;20038;-69
2023/07/19 04:07:02;;;;;;;2.72;1.45;;;;;;;23.74;47.52;101330.31;4969881;28;20038;-69
2023/07/19 04:09:28;;;;;;;1.50;1.40;;;;;;;23.72;47.68;101324.38;4970599;28;20089;-69
2023/07/19 04:11:53;;;;;;;1.48;1.38;;;;;;;23.71;47.83;101314.75;4973599;28;20141;-69
2023/07/19 04:14:19;;;;;;;2.55;1.42;;;;;;;23.70;47.67;101324.56;4970402;28;20027;-70
2023/07/19 04:16:44;;;;;;;1.30;1.20;;;;;;;23.70;47.50;101318.44;4969828;28;20497;-68
2023/07/19 04:19:10;;;;;;;1.73;1.60;;;;;;;23.75;47.47;101316.00;4969750;28;20062;-69
2023/07/19 04:21:36;;;;;;;1.65;1.55;;;;;;;23.68;47.66;101304.47;4972997;28;20039;-69
2023/07/19 04:24:01;;;;;;;1.27;1.17;;;;;;;23.73;47.45;101310.88;4972272;28;20046;-69
2023/07/19 04:26:28;;;;;;;1.63;1.52;;;;;;;23.70;47.49;101315.78;4969461;28;20043;-69
2023/07/19 04:28:56;;;;;;;1.50;1.40;;;;;;;23.71;47.46;101312.91;4969918;28;20520;-68
2023/07/19 04:31:21;;;;;;;2.35;1.40;;;;;;;23.71;47.59;101314.75;4970905;28;20033;-69
2023/07/19 04:33:47;;;;;;;2.17;1.98;;;;;;;23.70;47.55;101313.94;4986785;28;20868;-69
2023/07/19 04:36:13;;;;;;;1.52;1.42;;;;;;;23.70;47.51;101310.44;4969533;28;20058;-69
2023/07/19 04:38:40;;;;;;;1.60;1.50;;;;;;;23.73;47.45;101310.88;4970780;28;20031;-68
2023/07/19 04:41:07;;;;;;;1.70;1.60;;;;;;;23.73;47.47;101315.38;4965104;28;20046;-68
2023/07/19 04:43:32;;;;;;;2.13;1.80;;;;;;;23.73;47.33;101318.03;4984981;28;20038;-69
2023/07/19 04:45:59;;;;;;;2.03;1.70;;;;;;;23.70;47.47;101315.78;4968573;28;20056;-69
2023/07/19 04:48:25;;;;;;;1.52;1.42;;;;;;;23.70;47.46;101319.25;4969865;28;20066;-69
2023/07/19 04:50:57;;;;;;;1.85;1.63;;;;;;;23.72;47.44;101313.75;4986814;28;20345;-68
2023/07/19 04:53:25;;;;;;;1.27;1.17;;;;;;;23.71;47.51;101312.09;4987260;28;20049;-69
2023/07/19 04:55:53;;;;;;;2.00;1.90;;;;;;;23.72;47.41;101313.75;4971904;28;20135;-69
2023/07/19 04:58:21;;;;;;;1.60;1.50;;;;;;;23.71;47.46;101307.59;4982567;28;20102;-69
2023/07/19 05:00:46;;;;;;;1.55;1.33;;;;;;;23.72;47.54;101322.53;4969407;28;20695;-69
2023/07/19 05:03:12;;;;;;;1.52;1.42;;;;;;;23.74;47.56;101320.50;4967587;28;20031;-68
2023/07/19 05:05:39;;;;;;;1.95;1.80;;;;;;;23.75;47.47;101310.69;4973313;28;20046;-69
2023/07/19 05:08:06;;;;;;;2.38;1.60;;;;;;;23.74;47.47;101315.19;4987695;28;20491;-69
2023/07/19 05:10:37;;;;;;;1.80;1.70;;;;;;;23.75;47.31;101318.66;4966937;28;20491;-69
2023/07/19 05:13:04;;;;;;;1.55;1.45;;;;;;;23.73;47.39;101318.84;4964918;28;20027;-69
2023/07/19 05:15:30;;;;;;;1.55;1.45;;;;;;;23.76;47.21;101318.47;4970193;28;20038;-69
2023/07/19 05:17:56;;;;;;;1.88;1.70;;;;;;;23.75;47.25;101311.50;4968588;28;20026;-68
2023/07/19 05:20:28;;;;;;;1.75;1.65;;;;;;;23.74;47.47;101317.03;4972549;28;20050;-69
2023/07/19 05:22:53;;;;;;;2.22;1.52;;;;;;;23.76;47.36;101320.31;4971762;28;20031;-69
2023/07/19 05:25:19;;;;;;;1.63;1.50;;;;;;;23.75;47.30;101324.81;4972613;28;20073;-69
2023/07/19 05:27:44;;;;;;;1.63;1.50;;;;;;;23.76;47.36;101322.97;4970663;28;20038;-69
2023/07/19 05:30:10;;;;;;;1.50;1.40;;;;;;;23.76;47.31;101329.09;4972941;28;20074;-69
2023/07/19 05:32:36;;;;;;;2.28;1.85;;;;;;;23.77;47.39;101322.75;4969643;28;20054;-68
2023/07/19 05:35:03;;;;;;;1.73;1.63;;;;;;;23.76;47.48;101331.75;4974518;28;20039;-69
2023/07/19 05:37:29;;;;;;;1.77;1.67;;;;;;;23.78;47.47;101326.25;4945546;28;20139;-69
2023/07/19 05:39:54;;;;;;;1.33;1.23;;;;;;;23.76;47.38;101330.94;4972628;28;20106;-69
2023/07/19 05:42:20;;;;;;;1.38;1.20;;;;;;;23.76;47.32;101330.94;4974169;28;20038;-69
2023/07/19 05:44:45;;;;;;;1.95;1.30;;;;;;;23.76;47.50;101331.75;4973792;28;20050;-69
2023/07/19 05:47:11;;;;;;;1.50;1.40;;;;;;;23.76;47.37;101337.09;4974533;28;20042;-69
2023/07/19 05:49:36;;;;;;;1.70;1.60;;;;;;;23.76;47.24;101336.25;4974686;28;20136;-70
2023/07/19 05:52:02;;;;;;;1.40;1.30;;;;;;;23.76;47.36;101330.94;4974174;28;20046;-69
2023/07/19 05:54:29;;;;;;;2.08;1.60;;;;;;;23.75;47.44;101330.13;4971366;28;20048;-69
2023/07/19 05:56:54;;;;;;;1.48;1.35;;;;;;;23.74;47.40;101327.66;4970007;28;20034;-69
2023/07/19 05:59:19;;;;;;;1.30;1.20;;;;;;;23.73;47.27;101328.69;4976359;28;20069;-69
2023/07/19 06:01:45;;;;;;;1.63;1.40;;;;;;;23.78;47.29;101337.72;4977297;28;20126;-69
2023/07/19 06:04:11;;;;;;;1.92;1.42;;;;;;;23.77;47.25;101332.59;4976668;28;20041;-69
2023/07/19 06:06:37;;;;;;;1.83;1.13;;;;;;;23.74;47.37;101331.13;4975883;28;20069;-68
2023/07/19 06:09:05;;;;;;;2.30;1.75;;;;;;;23.73;47.39;101336.66;4975474;28;20054;-69
2023/07/19 06:11:32;;;;;;;1.98;1.60;;;;;;;23.74;47.34;101339.13;4973961;28;20039;-68
2023/07/19 06:13:58;;;;;;;1.60;1.50;;;;;;;23.50;47.34;101297.78;4975348;28;20471;-68
2023/07/19 06:16:25;;;;;;;2.50;1.58;;;;;;;23.74;47.40;101340.94;4972877;28;20061;-69
2023/07/19 06:18:50;;;;;;;1.60;1.48;;;;;;;23.73;47.41;101331.34;4972919;28;20333;-68
2023/07/19 06:21:16;;;;;;;1.55;1.45;;;;;;;23.74;47.39;101330.31;4972806;28;20078;-69
2023/07/19 06:23:42;;;;;;;2.13;1.40;;;;;;;23.73;47.38;101342.78;4975801;28;20034;-69
2023/07/19 06:26:07;;;;;;;3.60;1.70;;;;;;;23.73;47.47;101344.63;4973182;28;20049;-69
2023/07/19 06:28:33;;;;;;;1.52;1.42;;;;;;;23.65;47.36;101329.63;4973365;28;20069;-70
2023/07/19 06:31:02;;;;;;;2.35;1.60;;;;;;;23.73;47.37;101339.31;4969482;28;20046;-69
2023/07/19 06:33:30;;;;;;;1.52;1.40;;;;;;;23.72;47.48;101343.81;4971598;28;20488;-69
2023/07/19 06:35:56;;;;;;;1.98;1.73;;;;;;;23.73;47.31;101344.63;4973307;28;20074;-69
2023/07/19 06:38:23;;;;;;;2.78;1.55;;;;;;;23.68;47.42;101334.56;4971554;28;20030;-69
2023/07/19 06:40:48;;;;;;;2.00;1.77;;;;;;;23.73;47.41;101336.66;4975013;28;20035;-69
2023/07/19 06:43:14;;;;;;;1.30;1.20;;;;;;;23.67;47.21;101327.59;4974020;28;20482;-69
2023/07/19 06:45:39;;;;;;;2.28;1.90;;;;;;;23.72;47.41;101343.00;4974062;28;20508;-69
2023/07/19 06:48:05;;;;;;;2.05;1.42;;;;;;;23.70;47.35;101339.69;4972603;28;20049;-69
2023/07/19 06:50:31;;;;;;;1.98;1.40;;;;;;;23.71;47.47;101341.34;4969862;28;20046;-70
2023/07/19 06:52:56;;;;;;;1.60;1.50;;;;;;;23.71;47.24;101339.50;4971425;28;20061;-69
2023/07/19 06:55:23;;;;;;;2.05;1.77;;;;;;;23.64;47.46;101325.31;4975513;28;20043;-69
2023/07/19 06:57:48;;;;;;;2.35;1.35;;;;;;;23.68;47.48;101339.03;4971292;28;20035;-69
2023/07/19 07:00:14;;;;;;;1.20;1.10;;;;;;;23.72;47.39;101333.16;4976581;28;20031;-69
2023/07/19 07:02:40;;;;;;;1.70;1.20;;;;;;;23.71;47.40;101336.03;4972018;28;20047;-69
2023/07/19 07:05:05;;;;;;;1.55;1.45;;;;;;;23.67;47.37;101321.44;4973664;28;20510;-69
2023/07/19 07:07:31;;;;;;;2.85;1.40;;;;;;;23.72;47.24;101332.34;4969893;28;20043;-69
2023/07/19 07:09:58;;;;;;;1.60;1.50;;;;;;;23.68;47.29;101331.06;4969395;28;20054;-68
2023/07/19 07:12:24;;;;;;;1.92;1.60;;;;;;;23.76;47.38;101342.41;4966100;28;20049;-68
2023/07/19 07:14:49;;;;;;;2.17;1.48;;;;;;;23.77;47.29;101340.56;4970305;28;20435;-69
2023/07/19 07:17:15;;;;;;;1.75;1.65;;;;;;;23.79;47.12;101344.66;4971190;28;20051;-68
2023/07/19 07:19:40;;;;;;;2.10;1.58;;;;;;;23.84;47.08;101348.56;4973328;28;20045;-69
2023/07/19 07:22:06;;;;;;;3.50;1.35;;;;;;;23.83;47.07;101341.63;4972476;28;20041;-69
2023/07/19 07:24:31;;;;;;;1.50;1.40;;;;;;;23.86;47.00;101351.84;4970507;28;20058;-69
2023/07/19 07:26:57;;;;;;;1.73;1.60;;;;;;;23.84;47.16;101353.91;4969779;28;20051;-68
2023/07/19 07:29:22;;;;;;;1.25;1.17;;;;;;;23.84;47.15;101354.72;4971155;28;20061;-69
2023/07/19 07:31:48;;;;;;;1.45;1.35;;;;;;;23.84;47.10;101354.72;4971281;28;20065;-68
2023/07/19 07:34:13;;;;;;;1.40;1.30;;;;;;;23.84;47.16;101357.38;4968977;28;20050;-69
2023/07/19 07:36:39;;;;;;;1.85;1.38;;;;;;;23.86;46.97;101355.34;4969835;28;20484;-69
2023/07/19 07:39:05;;;;;;;1.33;1.20;;;;;;;23.86;47.08;101352.69;4970579;28;20057;-68
2023/07/19 07:41:32;;;;;;;1.20;1.20;;;;;;;23.86;47.00;101347.38;4967823;28;20046;-68
2023/07/19 07:43:57;;;;;;;2.95;1.40;;;;;;;23.90;46.77;101356.63;4969403;28;20047;-69
2023/07/19 07:46:24;;;;;;;1.77;1.40;;;;;;;23.93;46.96;101355.41;4972285;28;20093;-68
2023/07/19 07:48:50;;;;;;;1.40;1.30;;;;;;;23.92;46.92;101356.44;4969231;28;20046;-69
2023/07/19 07:51:15;;;;;;;1.52;1.35;;;;;;;23.93;46.93;101347.44;4968955;28;20093;-67
2023/07/19 07:53:41;;;;;;;1.67;1.52;;;;;;;23.92;46.72;101351.94;4966995;28;20114;-69
2023/07/19 07:56:06;;;;;;;2.03;1.42;;;;;;;23.94;46.96;101354.38;4972262;28;20042;-70
2023/07/19 07:58:32;;;;;;;1.88;1.75;;;;;;;23.97;46.79;101352.16;4967546;28;20058;-69
2023/07/19 08:00:59;;;;;;;1.40;1.30;;;;;;;23.99;46.76;101351.97;4970205;28;20065;-69
2023/07/19 08:03:25;;;;;;;2.35;1.45;;;;;;;23.99;46.79;101349.31;4970811;28;20043;-69
2023/07/19 08:05:50;;;;;;;1.60;1.50;;;;;;;23.98;46.67;101351.13;4967908;28;20046;-69
2023/07/19 08:08:16;;;;;;;1.40;1.30;;;;;;;23.96;46.44;101329.22;4969113;28;20039;-69
2023/07/19 08:10:41;;;;;;;1.55;1.45;;;;;;;24.04;46.42;101342.38;4965997;28;20031;-70
2023/07/19 08:13:08;;;;;;;1.98;1.50;;;;;;;24.06;46.67;101340.38;4970471;28;20043;-69
2023/07/19 08:15:34;;;;;;;1.40;1.30;;;;;;;24.08;46.42;101342.81;4969310;28;20051;-69
2023/07/19 08:18:00;;;;;;;1.70;1.55;;;;;;;24.10;46.43;101335.47;4968084;28;20043;-69
2023/07/19 08:20:26;;;;;;;1.45;1.35;;;;;;;24.11;46.50;101342.44;4968629;28;21121;-67
2023/07/19 08:22:52;;;;;;;1.75;1.27;;;;;;;24.10;46.32;101346.94;4966445;28;20923;-67
2023/07/19 08:25:21;;;;;;;1.42;1.33;;;;;;;24.10;46.41;101346.94;4962838;28;20551;-67
2023/07/19 08:27:47;;;;;;;1.30;1.20;;;;;;;24.14;46.09;101338.56;4981741;28;20115;-67
2023/07/19 08:30:15;;;;;;;1.40;1.30;;;;;;;24.09;46.20;101331.97;4971354;28;20109;-67
2023/07/19 08:32:48;;;;;;;1.35;1.35;;;;;;;24.16;46.30;101342.66;4970010;28;20042;-67
2023/07/19 08:35:14;;;;;;;1.92;1.58;;;;;;;24.15;46.31;101343.66;4982878;28;20041;-68
2023/07/19 08:37:45;;;;;;;2.10;1.30;;;;;;;24.15;46.37;101337.53;4974470;28;20764;-68
2023/07/19 08:40:14;;;;;;;1.50;1.40;;;;;;;24.15;46.31;101334.88;4967700;28;20073;-67
2023/07/19 08:42:41;;;;;;;1.40;1.30;;;;;;;24.03;46.39;101319.44;4970623;28;20095;-68
2023/07/19 08:45:08;;;;;;;1.95;1.42;;;;;;;24.15;46.49;101346.34;4966042;28;20050;-67
2023/07/19 08:47:34;;;;;;;1.45;1.35;;;;;;;24.15;46.09;101341.00;4966725;28;20050;-67
2023/07/19 08:50:04;;;;;;;1.15;1.05;;;;;;;24.15;46.13;101338.34;4967246;28;20458;-68
2023/07/19 08:52:30;;;;;;;;;;;;;;;24.16;46.26;101336.50;4967648;28;20055;-67
2023/07/19 08:54:55;;;;;;;1.77;1.50;;;;;;;24.12;46.44;101338.75;4970263;28;20990;-67
2023/07/19 08:57:21;;;;;;;2.15;1.33;;;;;;;24.10;46.32;101344.28;4968475;28;20043;-68
2023/07/19 08:59:46;;;;;;;1.70;1.40;;;;;;;24.10;46.25;101341.59;4966759;28;20047;-67
2023/07/19 09:02:12;;;;;;;1.58;1.20;;;;;;;24.15;46.22;101327.72;4967514;28;20668;-67
2023/07/19 09:04:39;;;;;;;1.10;1.10;;;;;;;24.15;46.08;101329.56;4963996;28;20547;-67
2023/07/19 09:07:04;;;;;;;1.45;1.10;;;;;;;24.09;46.09;101318.69;4967654;28;20094;-67
2023/07/19 09:09:31;;;;;;;3.00;1.40;;;;;;;24.10;46.23;101322.97;4971206;28;20034;-67
2023/07/19 09:11:57;;;;;;;1.55;1.35;;;;;;;24.16;46.10;101328.53;4969204;28;20030;-67
2023/07/19 09:14:36;;;;;;;1.27;1.20;;;;;;;24.18;46.13;101329.16;4968610;28;20122;-67
2023/07/19 09:17:02;;;;;;;1.33;1.17;;;;;;;24.23;45.82;101332.84;4971526;28;20045;-67
2023/07/19 09:19:28;;;;;;;1.75;0.93;;;;;;;24.24;46.09;101325.72;4970618;28;20034;-67
2023/07/19 09:21:53;;;;;;;1.52;1.42;;;;;;;24.29;45.88;101331.31;4988042;28;20074;-67
2023/07/19 09:24:19;;;;;;;1.20;1.10;;;;;;;24.31;45.94;101331.91;4968805;28;20508;-67
2023/07/19 09:26:53;;;;;;;1.70;1.10;;;;;;;24.28;45.82;101327.78;4970677;28;20031;-68
2023/07/19 09:29:19;;;;;;;1.55;1.23;;;;;;;24.27;45.84;101314.69;4968810;28;20041;-67
2023/07/19 09:32:02;;;;;;;1.20;1.00;;;;;;;24.35;45.74;101322.50;4968980;28;20500;-67
2023/07/19 09:34:28;;;;;;;1.52;1.15;;;;;;;24.36;45.89;101319.66;4966247;28;20041;-68
2023/07/19 09:36:54;;;;;;;1.85;1.20;;;;;;;24.36;45.87;101314.34;4970855;28;20035;-67
2023/07/19 09:39:22;;;;;;;1.23;1.13;;;;;;;24.37;45.53;101323.13;4970498;28;20035;-68
2023/07/19 09:41:47;;;;;;;1.63;1.20;;;;;;;24.40;45.62;101320.91;4968464;28;20047;-68
2023/07/19 09:44:16;;;;;;;1.33;1.23;;;;;;;24.40;45.75;101323.56;4969146;28;20034;-68
2023/07/19 09:46:46;;;;;;;1.53;1.33;;;;;;;24.40;45.82;101317.41;4968603;28;20487;-67
2023/07/19 09:49:12;;;;;;;;;;;;;;;24.38;45.73;101314.13;4968471;28;20054;-67
2023/07/19 09:51:42;;;;;;;1.17;1.02;;;;;;;24.37;45.58;101313.31;4972396;28;19926;-67
2023/07/19 09:54:12;;;;;;;1.95;1.00;;;;;;;24.38;45.87;101320.28;4973567;28;20035;-67
2023/07/19 09:56:39;;;;;;;1.42;1.10;;;;;;;24.38;45.89;101322.94;4970965;28;20043;-67
2023/07/19 09:59:08;;;;;;;2.05;1.35;;;;;;;24.31;45.76;101314.13;4973507;28;20039;-67
2023/07/19 10:01:34;;;;;;;1.25;1.10;;;;;;;24.37;45.71;101329.28;4970729;28;20043;-67
2023/07/19 10:04:00;;;;;;;1.73;1.30;;;;;;;24.33;45.89;101328.03;4971528;28;20030;-67
2023/07/19 10:06:29;;;;;;;1.45;1.30;;;;;;;24.39;45.77;101329.91;4970045;28;20054;-68
2023/07/19 10:09:23;;;;;;;1.02;1.00;;;;;;;24.38;45.92;101336.25;4968468;28;20121;-67
2023/07/19 10:11:51;;;;;;;2.65;1.35;;;;;;;24.39;45.85;101335.22;4968317;28;20751;-68
2023/07/19 10:14:26;;;;;;;1.00;1.00;;;;;;;24.38;45.68;101338.09;4971505;28;20046;-67
2023/07/19 10:17:09;;;;;;;1.17;1.08;;;;;;;24.39;45.80;101335.22;4972058;28;20065;-67
2023/07/19 10:19:36;;;;;;;1.85;1.13;;;;;;;24.41;45.55;101329.69;4965254;28;20050;-67
2023/07/19 10:22:07;;;;;;;3.30;1.20;;;;;;;24.40;45.66;101323.56;4971470;28;20042;-67
2023/07/19 10:24:35;;;;;;;1.13;0.90;;;;;;;24.16;45.53;101281.44;4971137;28;20053;-67
2023/07/19 10:27:05;;;;;;;1.30;1.20;;;;;;;24.43;45.78;101327.69;4972845;28;20041;-67
2023/07/19 10:29:44;;;;;;;1.00;0.93;;;;;;;24.37;45.73;101326.63;4970393;28;20038;-67
2023/07/19 10:32:10;;;;;;;0.90;0.90;;;;;;;24.40;45.73;101339.53;4968800;28;20050;-67
2023/07/19 10:34:37;;;;;;;1.30;1.20;;;;;;;24.41;45.50;101337.69;4968434;28;20493;-68
2023/07/19 10:37:03;;;;;;;1.00;0.93;;;;;;;24.43;45.55;101348.16;4970895;28;20038;-67
2023/07/19 10:39:30;;;;;;;1.67;1.13;;;;;;;24.42;45.51;101344.69;4969909;28;20065;-68
2023/07/19 10:41:55;;;;;;;2.53;1.20;;;;;;;24.40;45.74;101336.88;4969709;28;20101;-67
2023/07/19 10:44:21;;;;;;;2.30;1.52;;;;;;;24.44;45.49;101345.31;4968290;28;20051;-67
2023/07/19 10:46:47;;;;;;;1.27;1.02;;;;;;;24.38;45.64;101338.91;4972118;28;20034;-69
2023/07/19 10:49:13;;;;;;;1.25;1.15;;;;;;;24.39;45.59;101343.22;4972650;28;20038;-69
2023/07/19 10:51:38;;;;;;;1.80;1.17;;;;;;;24.41;45.60;101340.34;4969835;28;20093;-68
2023/07/19 10:54:06;;;;;;;1.52;1.42;;;;;;;24.41;45.63;101337.69;4974187;28;20049;-68
2023/07/19 10:56:32;;;;;;;1.88;1.13;;;;;;;24.41;45.62;101335.84;4969132;28;20042;-68
2023/07/19 10:58:59;;;;;;;1.17;1.08;;;;;;;24.44;45.62;101337.31;4973857;28;20042;-68
2023/07/19 11:01:29;;;;;;;1.52;1.08;;;;;;;24.40;45.49;101325.41;4969960;28;20111;-69
2023/07/19 11:04:00;;;;;;;1.33;1.23;;;;;;;24.48;45.54;101332.41;4970043;28;20038;-69
2023/07/19 11:06:26;;;;;;;1.10;1.00;;;;;;;24.49;45.39;101331.38;4969938;28;20142;-69
2023/07/19 11:08:51;;;;;;;1.45;1.08;;;;;;;24.50;45.44;101333.03;4971451;28;20053;-68
2023/07/19 11:11:17;;;;;;;1.70;1.20;;;;;;;24.49;45.55;101332.22;4970611;28;20051;-67
2023/07/19 11:13:45;;;;;;;2.55;1.35;;;;;;;24.47;45.65;101339.56;4969883;28;20081;-69
2023/07/19 11:16:10;;;;;;;1.73;1.00;;;;;;;24.47;45.43;101331.59;4974613;28;20535;-69
2023/07/19 11:18:40;;;;;;;1.70;1.00;;;;;;;24.44;45.43;101334.66;4972694;28;20050;-70
2023/07/19 11:21:07;;;;;;;1.05;1.02;;;;;;;24.46;45.39;101329.94;4970607;28;21473;-69
2023/07/19 11:23:44;;;;;;;2.92;1.10;;;;;;;24.47;45.69;101342.25;4978431;28;20077;-70